createdAt,value
2022-12-13T00:01:50.147Z,8.60
2022-12-13T00:04:18.742Z,8.70
2022-12-13T00:06:47.101Z,9.50
2022-12-13T00:09:15.831Z,9.70
2022-12-13T00:11:43.946Z,9.70
2022-12-13T00:14:14.886Z,9.90
2022-12-13T00:16:49.494Z,10.20
2022-12-13T00:19:18.835Z,9.90
2022-12-13T00:21:47.133Z,10.00
2022-12-13T00:24:15.197Z,10.20
2022-12-13T00:26:43.337Z,9.90
2022-12-13T00:29:13.324Z,9.50
2022-12-13T00:32:00.660Z,9.60
2022-12-13T00:34:29.395Z,9.90
2022-12-13T00:36:58.951Z,9.70
2022-12-13T00:39:27.701Z,9.50
2022-12-13T00:41:55.752Z,9.50
2022-12-13T00:44:25.398Z,9.50
2022-12-13T00:46:53.347Z,9.30
2022-12-13T00:49:21.525Z,9.60
2022-12-13T00:51:49.865Z,9.30
2022-12-13T00:54:18.435Z,9.20
2022-12-13T00:56:46.355Z,8.70
2022-12-13T00:59:15.832Z,9.20
2022-12-13T01:01:47.732Z,9.00
2022-12-13T01:04:15.764Z,9.30
2022-12-13T01:06:46.052Z,9.20
2022-12-13T01:09:18.583Z,9.00
2022-12-13T01:11:49.591Z,9.00
2022-12-13T01:14:18.209Z,9.10
2022-12-13T01:16:47.667Z,9.00
2022-12-13T01:19:16.581Z,9.10
2022-12-13T01:21:44.592Z,8.70
2022-12-13T01:24:12.577Z,8.40
2022-12-13T01:26:40.521Z,8.10
2022-12-13T01:29:13.458Z,8.40
2022-12-13T01:31:42.170Z,8.50
2022-12-13T01:34:12.783Z,8.60
2022-12-13T01:36:42.785Z,8.30
2022-12-13T01:39:15.659Z,8.00
2022-12-13T01:41:45.348Z,7.80
2022-12-13T01:44:50.503Z,7.70
2022-12-13T01:47:23.598Z,7.40
2022-12-13T01:49:55.067Z,6.90
2022-12-13T01:52:23.376Z,7.00
2022-12-13T01:54:55.893Z,7.20
2022-12-13T01:57:34.004Z,7.70
2022-12-13T02:00:02.584Z,8.00
2022-12-13T02:02:35.648Z,7.50
2022-12-13T02:05:11.253Z,7.60
2022-12-13T02:07:42.123Z,7.80
2022-12-13T02:10:11.765Z,8.20
2022-12-13T02:12:41.562Z,8.30
2022-12-13T02:15:13.124Z,8.00
2022-12-13T02:18:11.646Z,8.00
2022-12-13T02:20:59.698Z,7.50
2022-12-13T02:24:09.483Z,7.40
2022-12-13T02:27:15.167Z,7.60
2022-12-13T02:30:17.879Z,7.60
2022-12-13T02:33:21.701Z,7.40
2022-12-13T02:35:57.244Z,7.50
2022-12-13T02:38:30.652Z,7.60
2022-12-13T02:41:15.301Z,7.80
2022-12-13T02:43:49.148Z,7.90
2022-12-13T02:46:22.187Z,8.40
2022-12-13T02:48:52.794Z,8.60
2022-12-13T02:51:22.761Z,8.40
2022-12-13T02:53:50.694Z,8.20
2022-12-13T02:56:18.703Z,8.00
2022-12-13T02:58:50.626Z,7.70
2022-12-13T03:01:41.207Z,7.90
2022-12-13T03:04:15.770Z,7.90
2022-12-13T03:06:54.577Z,8.10
2022-12-13T03:09:38.150Z,8.10
2022-12-13T03:12:42.118Z,8.50
2022-12-13T03:15:16.957Z,8.50
2022-12-13T03:17:50.807Z,8.70
2022-12-13T03:20:23.663Z,8.60
2022-12-13T03:22:52.193Z,8.50
2022-12-13T03:25:31.341Z,8.90
2022-12-13T03:28:01.083Z,9.00
2022-12-13T03:30:30.593Z,9.00
2022-12-13T03:33:00.327Z,9.30
2022-12-13T03:35:34.553Z,9.30
2022-12-13T03:38:12.516Z,9.10
2022-12-13T03:40:52.880Z,8.80
2022-12-13T03:43:21.770Z,8.60
2022-12-13T03:45:50.788Z,8.30
2022-12-13T03:48:22.433Z,8.30
2022-12-13T03:50:52.132Z,8.70
2022-12-13T03:53:22.389Z,8.80
2022-12-13T03:56:01.391Z,8.70
2022-12-13T03:58:34.763Z,8.30
2022-12-13T04:01:07.290Z,8.70
2022-12-13T04:03:37.775Z,8.30
2022-12-13T04:06:06.873Z,8.60
2022-12-13T04:08:35.336Z,9.10
2022-12-13T04:11:25.573Z,8.70
2022-12-13T04:13:53.518Z,9.50
2022-12-13T04:16:22.262Z,9.60
2022-12-13T04:18:51.730Z,9.70
2022-12-13T04:21:19.736Z,9.70
2022-12-13T04:23:47.797Z,9.20
2022-12-13T04:26:15.763Z,10.00
2022-12-13T04:28:44.182Z,9.60
2022-12-13T04:31:14.022Z,9.50
2022-12-13T04:33:42.060Z,9.30
2022-12-13T04:36:11.352Z,8.30
2022-12-13T04:38:39.321Z,8.20
2022-12-13T04:41:16.335Z,8.90
2022-12-13T04:43:44.663Z,9.30
2022-12-13T04:46:12.902Z,9.70
2022-12-13T04:48:40.951Z,10.30
2022-12-13T04:51:08.912Z,10.30
2022-12-13T04:53:38.390Z,10.60
2022-12-13T04:56:07.909Z,10.40
2022-12-13T04:58:38.595Z,10.00
2022-12-13T05:01:08.112Z,9.60
2022-12-13T05:03:36.532Z,9.80
2022-12-13T05:06:06.396Z,10.00
2022-12-13T05:09:00.896Z,10.30
2022-12-13T05:11:35.636Z,10.60
2022-12-13T05:14:04.090Z,10.30
2022-12-13T05:16:32.205Z,10.30
2022-12-13T05:19:00.263Z,10.70
2022-12-13T05:21:28.214Z,10.60
2022-12-13T05:23:57.486Z,10.90
2022-12-13T05:26:25.555Z,10.80
2022-12-13T05:28:53.471Z,10.70
2022-12-13T05:31:23.227Z,11.30
2022-12-13T05:33:52.373Z,10.50
2022-12-13T05:36:22.445Z,10.30
2022-12-13T05:38:50.416Z,10.60
2022-12-13T05:41:22.245Z,10.40
2022-12-13T05:43:50.208Z,10.80
2022-12-13T05:46:18.218Z,11.20
2022-12-13T05:48:46.243Z,11.40
2022-12-13T05:51:14.187Z,11.30
2022-12-13T05:53:43.454Z,11.50
2022-12-13T05:56:12.738Z,11.80
2022-12-13T05:58:54.061Z,11.50
2022-12-13T06:01:23.557Z,11.90
2022-12-13T06:03:52.699Z,11.60
2022-12-13T06:06:23.018Z,11.50
2022-12-13T06:08:51.022Z,11.20
2022-12-13T06:11:31.374Z,10.90
2022-12-13T06:14:01.611Z,10.90
2022-12-13T06:16:29.730Z,10.50
2022-12-13T06:19:04.216Z,10.30
2022-12-13T06:21:41.447Z,10.20
2022-12-13T06:24:18.160Z,10.90
2022-12-13T06:26:46.434Z,11.20
2022-12-13T06:29:24.566Z,11.10
2022-12-13T06:31:55.009Z,11.10
2022-12-13T06:34:32.126Z,11.20
2022-12-13T06:37:00.821Z,11.40
2022-12-13T06:39:32.493Z,11.70
2022-12-13T06:42:01.791Z,11.40
2022-12-13T06:44:31.186Z,11.50
2022-12-13T06:47:11.454Z,11.00
2022-12-13T06:49:43.645Z,11.00
2022-12-13T06:52:14.935Z,10.50
2022-12-13T06:54:43.569Z,9.90
2022-12-13T06:57:12.020Z,10.60
2022-12-13T06:59:42.103Z,11.00
2022-12-13T07:02:25.275Z,10.80
2022-12-13T07:04:55.553Z,11.10
2022-12-13T07:07:24.543Z,11.30
2022-12-13T07:09:52.919Z,11.40
2022-12-13T07:12:21.542Z,11.40
2022-12-13T07:14:50.880Z,11.00
2022-12-13T07:17:32.622Z,11.00
2022-12-13T07:20:07.520Z,11.60
2022-12-13T07:22:37.840Z,12.50
2022-12-13T07:25:27.020Z,12.00
2022-12-13T07:28:02.096Z,11.10
2022-12-13T07:30:32.556Z,11.30
2022-12-13T07:33:01.801Z,11.10
2022-12-13T07:35:30.157Z,10.90
2022-12-13T07:37:58.189Z,10.80
2022-12-13T07:40:28.203Z,11.40
2022-12-13T07:42:57.805Z,11.60
2022-12-13T07:45:26.685Z,12.10
2022-12-13T07:47:56.021Z,13.10
2022-12-13T07:50:25.651Z,13.00
2022-12-13T07:52:54.340Z,13.30
2022-12-13T07:55:23.451Z,13.70
2022-12-13T07:58:05.540Z,13.60
2022-12-13T08:00:33.590Z,13.10
2022-12-13T08:03:03.070Z,12.90
2022-12-13T08:05:39.032Z,12.60
2022-12-13T08:08:09.261Z,12.60
2022-12-13T08:10:37.850Z,11.90
2022-12-13T08:13:06.383Z,12.20
2022-12-13T08:15:36.782Z,12.30
2022-12-13T08:18:06.453Z,12.60
2022-12-13T08:20:34.550Z,12.70
2022-12-13T08:23:03.093Z,12.30
2022-12-13T08:25:31.736Z,12.80
2022-12-13T08:28:01.678Z,12.90
2022-12-13T08:30:31.513Z,11.90
2022-12-13T08:32:59.803Z,11.60
2022-12-13T08:35:35.282Z,11.20
2022-12-13T08:38:04.162Z,10.80
2022-12-13T08:40:32.157Z,10.60
2022-12-13T08:43:00.106Z,10.70
2022-12-13T08:45:28.652Z,10.40
2022-12-13T08:47:59.589Z,10.20
2022-12-13T08:50:28.161Z,10.00
2022-12-13T08:52:57.824Z,9.50
2022-12-13T08:55:31.579Z,9.10
2022-12-13T08:58:08.645Z,8.90
2022-12-13T09:00:38.162Z,8.50
2022-12-13T09:03:10.206Z,8.80
2022-12-13T09:05:39.050Z,8.80
2022-12-13T09:08:23.670Z,8.70
2022-12-13T09:10:59.944Z,9.70
2022-12-13T09:13:31.682Z,9.90
2022-12-13T09:16:04.039Z,9.90
2022-12-13T09:18:36.365Z,9.90
2022-12-13T09:21:10.374Z,9.40
2022-12-13T09:23:45.760Z,9.70
2022-12-13T09:26:17.264Z,9.70
2022-12-13T09:28:45.287Z,9.60
2022-12-13T09:31:15.290Z,9.30
2022-12-13T09:33:43.922Z,8.80
2022-12-13T09:36:14.114Z,8.70
2022-12-13T09:38:44.043Z,8.90
2022-12-13T09:41:20.148Z,8.10
2022-12-13T09:44:01.218Z,7.90
2022-12-13T09:46:34.295Z,8.20
2022-12-13T09:49:05.500Z,8.40
2022-12-13T09:51:46.060Z,9.10
2022-12-13T09:54:23.146Z,9.50
2022-12-13T09:56:52.438Z,9.90
2022-12-13T09:59:26.725Z,9.60
2022-12-13T10:01:55.789Z,9.70
2022-12-13T10:04:24.257Z,9.80
2022-12-13T10:06:54.161Z,10.00
2022-12-13T10:09:23.821Z,10.00
2022-12-13T10:11:53.230Z,9.80
2022-12-13T10:14:27.665Z,9.80
2022-12-13T10:16:58.770Z,10.20
2022-12-13T10:19:34.593Z,9.60
2022-12-13T10:22:04.196Z,8.90
2022-12-13T10:24:52.000Z,8.40
2022-12-13T10:27:30.455Z,8.20
2022-12-13T10:30:01.028Z,8.80
2022-12-13T10:32:29.736Z,10.00
2022-12-13T10:35:20.649Z,10.40
2022-12-13T10:37:48.933Z,10.20
2022-12-13T10:40:33.380Z,9.80
2022-12-13T10:43:23.997Z,9.70
2022-12-13T10:45:59.660Z,9.90
2022-12-13T10:48:38.581Z,10.00
2022-12-13T10:51:13.399Z,9.80
2022-12-13T10:53:49.446Z,10.50
2022-12-13T10:56:22.853Z,10.40
2022-12-13T10:59:14.997Z,9.70
2022-12-13T11:01:45.304Z,9.60
2022-12-13T11:04:27.767Z,9.70
2022-12-13T11:06:57.569Z,9.50
2022-12-13T11:09:27.941Z,10.00
2022-12-13T11:11:59.193Z,9.50
2022-12-13T11:14:32.368Z,9.60
2022-12-13T11:17:06.964Z,9.90
2022-12-13T11:19:41.089Z,9.10
2022-12-13T11:22:11.270Z,8.90
2022-12-13T11:24:42.141Z,9.00
2022-12-13T11:27:26.274Z,9.30
2022-12-13T11:30:21.985Z,9.40
2022-12-13T11:33:14.728Z,9.60
2022-12-13T11:35:54.428Z,9.60
2022-12-13T11:38:29.912Z,9.80
2022-12-13T11:41:03.931Z,10.30
2022-12-13T11:43:40.195Z,10.60
2022-12-13T11:46:16.169Z,10.40
2022-12-13T11:48:48.893Z,10.40
2022-12-13T11:51:23.895Z,10.60
2022-12-13T11:53:58.339Z,10.70
2022-12-13T11:56:28.618Z,10.40
2022-12-13T11:59:16.358Z,10.80
2022-12-13T12:01:54.098Z,10.60
2022-12-13T12:04:29.970Z,10.30
2022-12-13T12:07:24.429Z,10.40
2022-12-13T12:09:54.968Z,10.00
2022-12-13T12:12:29.941Z,9.90
2022-12-13T12:15:05.280Z,10.40
2022-12-13T12:17:44.199Z,10.40
2022-12-13T12:20:14.362Z,10.50
2022-12-13T12:23:02.913Z,10.20
2022-12-13T12:25:42.571Z,10.30
2022-12-13T12:28:18.422Z,10.20
2022-12-13T12:30:57.752Z,9.90
2022-12-13T12:33:33.715Z,9.70
2022-12-13T12:36:18.551Z,10.30
2022-12-13T12:39:11.895Z,10.30
2022-12-13T12:41:52.715Z,10.80
2022-12-13T12:44:31.367Z,11.40
2022-12-13T12:50:17.827Z,11.30
2022-12-13T12:52:58.192Z,10.90
2022-12-13T12:55:36.486Z,10.70
2022-12-13T12:58:14.115Z,10.70
2022-12-13T13:00:50.098Z,10.40
2022-12-13T13:03:23.232Z,10.10
2022-12-13T13:06:01.702Z,10.70
2022-12-13T13:08:35.756Z,11.20
2022-12-13T13:11:24.414Z,11.20
2022-12-13T13:14:02.912Z,10.90
2022-12-13T13:16:33.967Z,10.90
2022-12-13T13:19:03.781Z,11.50
2022-12-13T13:21:43.218Z,12.20
2022-12-13T13:24:23.033Z,11.90
2022-12-13T13:26:54.136Z,11.80
2022-12-13T13:29:33.663Z,11.50
2022-12-13T13:32:05.031Z,11.40
2022-12-13T13:34:37.344Z,11.60
2022-12-13T13:37:06.560Z,11.50
2022-12-13T13:39:54.490Z,11.80
2022-12-13T13:42:24.007Z,11.60
2022-12-13T13:45:01.421Z,11.40
2022-12-13T13:47:41.838Z,12.20
2022-12-13T13:50:52.333Z,12.60
2022-12-13T13:53:53.357Z,12.50
2022-12-13T13:57:05.092Z,12.40
2022-12-13T14:00:12.122Z,12.30
2022-12-13T14:03:34.249Z,12.70
2022-12-13T14:06:33.884Z,12.30
2022-12-13T14:09:50.005Z,12.90
2022-12-13T14:12:55.839Z,13.30
2022-12-13T14:15:55.374Z,13.10
2022-12-13T14:19:02.375Z,13.70
2022-12-13T14:21:38.394Z,14.10
2022-12-13T14:24:18.397Z,14.10
2022-12-13T14:27:04.338Z,14.60
2022-12-13T14:29:35.120Z,14.90
2022-12-13T14:32:26.961Z,15.00
2022-12-13T14:34:56.077Z,15.30
2022-12-13T14:37:28.663Z,15.30
2022-12-13T14:39:56.861Z,15.40
2022-12-13T14:42:29.764Z,15.50
2022-12-13T14:45:14.449Z,15.60
2022-12-13T14:47:43.982Z,15.40
2022-12-13T14:50:17.937Z,15.40
2022-12-13T14:52:48.594Z,15.50
2022-12-13T14:55:29.871Z,15.50
2022-12-13T14:58:02.518Z,15.50
2022-12-13T15:00:33.815Z,15.70
2022-12-13T15:03:04.058Z,15.40
2022-12-13T15:05:35.251Z,15.20
2022-12-13T15:08:10.269Z,15.60
2022-12-13T15:10:40.766Z,15.60
2022-12-13T15:13:25.285Z,15.60
2022-12-13T15:16:01.109Z,15.60
2022-12-13T15:18:40.229Z,15.70
2022-12-13T15:21:22.373Z,15.50
2022-12-13T15:24:03.871Z,15.50
2022-12-13T15:26:38.367Z,15.70
2022-12-13T15:29:10.684Z,15.50
2022-12-13T15:31:39.970Z,15.60
2022-12-13T15:34:34.872Z,15.70
2022-12-13T15:37:06.369Z,15.80
2022-12-13T15:39:40.706Z,15.60
2022-12-13T15:42:21.479Z,15.60
2022-12-13T15:44:56.387Z,15.70
2022-12-13T15:47:27.758Z,15.80
2022-12-13T15:49:58.289Z,15.70
2022-12-13T15:52:33.034Z,15.90
2022-12-13T15:55:03.268Z,15.70
2022-12-13T15:57:33.111Z,14.90
2022-12-13T16:00:19.605Z,14.60
2022-12-13T16:03:01.265Z,14.10
2022-12-13T16:05:39.472Z,13.90
2022-12-13T16:08:13.834Z,13.70
2022-12-13T16:10:47.896Z,12.90
2022-12-13T16:13:26.426Z,12.80
2022-12-13T16:16:00.409Z,12.30
2022-12-13T16:18:46.072Z,12.40
2022-12-13T16:21:14.665Z,12.50
2022-12-13T16:23:48.849Z,12.40
2022-12-13T16:26:23.389Z,12.70
2022-12-13T16:28:51.472Z,13.30
2022-12-13T16:31:23.946Z,13.20
2022-12-13T16:33:52.400Z,13.00
2022-12-13T16:36:23.706Z,13.40
2022-12-13T16:38:52.344Z,13.30
2022-12-13T16:41:21.952Z,13.40
2022-12-13T16:43:55.718Z,13.10
2022-12-13T16:47:12.459Z,13.10
2022-12-13T16:49:20.913Z,14.00
2022-12-13T16:51:51.854Z,14.50
2022-12-13T16:54:21.514Z,14.60
2022-12-13T16:56:49.898Z,14.50
2022-12-13T16:59:19.393Z,14.10
2022-12-13T17:01:50.173Z,13.80
2022-12-13T17:04:21.423Z,13.90
2022-12-13T17:06:50.880Z,14.00
2022-12-13T17:09:19.637Z,14.20
2022-12-13T17:11:47.690Z,14.30
2022-12-13T17:14:15.721Z,14.20
2022-12-13T17:16:43.910Z,14.10
2022-12-13T17:19:17.264Z,14.60
2022-12-13T17:21:45.298Z,14.60
2022-12-13T17:24:13.580Z,14.80
2022-12-13T17:26:54.899Z,14.90
2022-12-13T17:29:24.437Z,15.20
2022-12-13T17:31:53.084Z,15.10
2022-12-13T17:34:22.678Z,14.90
2022-12-13T17:36:50.637Z,15.10
2022-12-13T17:39:18.808Z,14.70
2022-12-13T17:41:55.318Z,13.90
2022-12-13T17:44:24.684Z,13.70
2022-12-13T17:46:54.388Z,14.10
2022-12-13T17:49:24.799Z,14.30
2022-12-13T17:51:54.000Z,14.20
2022-12-13T17:54:25.816Z,14.30
2022-12-13T17:56:54.376Z,14.50
2022-12-13T17:59:23.134Z,14.80
2022-12-13T18:01:52.066Z,15.00
2022-12-13T18:04:20.546Z,15.30
2022-12-13T18:06:51.291Z,15.10
2022-12-13T18:09:19.407Z,15.20
2022-12-13T18:11:47.841Z,15.40
2022-12-13T18:14:15.834Z,15.50
2022-12-13T18:16:43.829Z,15.50
2022-12-13T18:19:14.163Z,15.40
2022-12-13T18:21:43.091Z,15.40
2022-12-13T18:24:13.344Z,15.60
2022-12-13T18:26:41.384Z,15.70
2022-12-13T18:29:12.274Z,15.80
2022-12-13T18:31:41.040Z,15.70
2022-12-13T18:34:12.375Z,15.70
2022-12-13T18:36:40.597Z,15.70
2022-12-13T18:39:08.690Z,15.60
2022-12-13T18:41:37.963Z,15.40
2022-12-13T18:44:08.047Z,15.50
2022-12-13T18:46:43.399Z,15.40
2022-12-13T18:49:14.034Z,15.40
2022-12-13T18:51:41.982Z,15.30
2022-12-13T18:54:10.057Z,14.90
2022-12-13T18:56:39.361Z,14.80
2022-12-13T18:59:07.615Z,14.70
2022-12-13T19:01:35.743Z,14.50
2022-12-13T19:04:05.039Z,14.30
2022-12-13T19:06:33.109Z,14.60
2022-12-13T19:09:01.276Z,14.80
2022-12-13T19:11:29.881Z,15.00
2022-12-13T19:13:59.202Z,15.20
2022-12-13T19:16:27.664Z,15.30
2022-12-13T19:18:55.912Z,15.40
2022-12-13T19:21:25.052Z,15.50
2022-12-13T19:23:57.873Z,15.70
2022-12-13T19:26:27.423Z,15.80
2022-12-13T19:28:57.305Z,15.80
2022-12-13T19:31:30.936Z,15.90
2022-12-13T19:34:01.261Z,16.00
2022-12-13T19:36:29.314Z,15.90
2022-12-13T19:38:57.280Z,15.90
2022-12-13T19:41:25.704Z,16.00
2022-12-13T19:43:54.119Z,16.00
2022-12-13T19:46:23.057Z,15.90
2022-12-13T19:48:52.484Z,16.00
2022-12-13T19:51:21.403Z,16.00
2022-12-13T19:53:49.725Z,16.00
2022-12-13T19:56:20.519Z,15.90
2022-12-13T19:58:49.463Z,15.90
2022-12-13T20:01:18.890Z,15.90
2022-12-13T20:03:48.004Z,15.80
2022-12-13T20:06:19.337Z,15.80
2022-12-13T20:08:47.680Z,15.80
2022-12-13T20:11:19.232Z,15.90
2022-12-13T20:13:47.863Z,15.90
2022-12-13T20:16:18.382Z,15.70
2022-12-13T20:18:46.948Z,15.70
2022-12-13T20:21:15.947Z,15.70
2022-12-13T20:23:49.282Z,15.70
2022-12-13T20:26:20.336Z,15.70
2022-12-13T20:28:48.585Z,15.60
2022-12-13T20:31:19.158Z,15.60
2022-12-13T20:33:47.586Z,15.40
2022-12-13T20:36:26.084Z,15.00
2022-12-13T20:38:57.447Z,15.10
2022-12-13T20:41:30.960Z,15.20
2022-12-13T20:44:00.196Z,15.20
2022-12-13T20:46:29.751Z,15.30
2022-12-13T20:48:59.129Z,15.30
2022-12-13T20:51:29.353Z,15.20
2022-12-13T20:53:58.682Z,15.00
2022-12-13T20:56:31.681Z,15.10
2022-12-13T20:58:59.660Z,15.10
2022-12-13T21:01:31.918Z,15.20
2022-12-13T21:04:01.252Z,15.10
2022-12-13T21:06:29.855Z,14.90
2022-12-13T21:09:02.841Z,14.90
2022-12-13T21:11:33.103Z,14.80
2022-12-13T21:14:07.926Z,14.70
2022-12-13T21:16:42.764Z,14.90
2022-12-13T21:19:14.145Z,14.80
2022-12-13T21:21:42.221Z,14.80
2022-12-13T21:24:14.739Z,14.80
2022-12-13T21:26:43.875Z,14.40
2022-12-13T21:29:13.546Z,14.60
2022-12-13T21:31:48.920Z,14.60
2022-12-13T21:34:18.283Z,14.60
2022-12-13T21:36:50.777Z,14.80
2022-12-13T21:39:22.713Z,14.20
2022-12-13T21:41:50.732Z,13.90
2022-12-13T21:44:19.235Z,13.90
2022-12-13T21:49:39.296Z,13.80
2022-12-13T21:52:08.433Z,13.70
2022-12-13T21:54:37.706Z,13.40
2022-12-13T21:57:23.462Z,13.20
2022-12-13T21:59:51.387Z,13.00
2022-12-13T22:02:20.109Z,13.10
2022-12-13T22:04:49.784Z,13.20
2022-12-13T22:07:19.432Z,13.20
2022-12-13T22:09:51.230Z,13.10
2022-12-13T22:12:22.300Z,13.00
2022-12-13T22:14:51.030Z,13.00
2022-12-13T22:17:24.968Z,13.00
2022-12-13T22:19:55.442Z,12.90
2022-12-13T22:22:25.078Z,12.80
2022-12-13T22:24:54.828Z,12.80
2022-12-13T22:27:25.146Z,12.90
2022-12-13T22:29:53.766Z,12.80
2022-12-13T22:32:22.344Z,12.30
2022-12-13T22:34:50.552Z,12.30
2022-12-13T22:37:18.612Z,12.40
2022-12-13T22:39:46.819Z,12.40
2022-12-13T22:42:16.412Z,12.00
2022-12-13T22:44:44.687Z,11.60
2022-12-13T22:47:12.613Z,11.40
2022-12-13T22:49:40.974Z,10.60
2022-12-13T22:52:09.582Z,11.10
2022-12-13T22:54:37.596Z,11.00
2022-12-13T22:57:05.619Z,10.90
2022-12-13T22:59:34.946Z,11.20
2022-12-13T23:02:03.924Z,11.40
2022-12-13T23:04:34.846Z,11.50
2022-12-13T23:07:02.808Z,11.40
2022-12-13T23:09:31.972Z,10.80
2022-12-13T23:12:17.475Z,10.90
2022-12-13T23:14:46.797Z,10.80
2022-12-13T23:17:14.736Z,10.80
2022-12-13T23:19:50.865Z,10.70
2022-12-13T23:22:21.895Z,11.10
2022-12-13T23:24:50.276Z,11.00
2022-12-13T23:27:18.749Z,10.90
2022-12-13T23:29:48.149Z,10.80
2022-12-13T23:32:16.140Z,11.10
2022-12-13T23:34:44.124Z,10.80
2022-12-13T23:37:12.052Z,10.50
2022-12-13T23:39:40.037Z,10.70
2022-12-13T23:42:08.313Z,10.50
2022-12-13T23:44:36.533Z,9.80
2022-12-13T23:47:06.098Z,10.20
2022-12-13T23:49:34.057Z,9.50
2022-12-13T23:52:02.021Z,9.80
2022-12-13T23:54:29.943Z,10.10
2022-12-13T23:56:57.935Z,9.40
2022-12-13T23:59:28.587Z,8.80
